Time;durP1;ratioP1;P1;durP2;ratioP2;P2;SDS_P1;SDS_P2;PMS_P1;PMS_P2;Temp;Humidity;BMP_temperature;BMP_pressure;BME280_temperature;BME280_humidity;BME280_pressure;Samples;Min_cycle;Max_cycle;Signal;HPM_P1;HPM_P2
2022/08/25 00:01:33;;;;;;;;;;;22.90;71.90;;;;;;6075171;23;1350;-66
2022/08/25 00:03:59;;;;;;;;;;;22.90;71.90;;;;;;6099782;23;829;-66
2022/08/25 00:06:25;;;;;;;;;;;22.90;71.90;;;;;;6125406;23;1161;-66
2022/08/25 00:08:50;;;;;;;;;;;22.90;71.90;;;;;;6099762;23;1957;-66
2022/08/25 00:11:17;;;;;;;;;;;22.90;71.90;;;;;;6125772;23;807;-65
2022/08/25 00:13:43;;;;;;;;;;;22.90;71.90;;;;;;6100021;23;1046;-65
2022/08/25 00:16:13;;;;;;;;;;;22.90;71.90;;;;;;6125351;23;871;-66
2022/08/25 00:18:38;;;;;;;;;;;22.90;71.90;;;;;;6101111;23;1259;-65
2022/08/25 00:21:04;;;;;;;;;;;22.90;71.90;;;;;;6101290;23;791;-66
2022/08/25 00:23:30;;;;;;;;;;;22.90;71.90;;;;;;6101434;23;837;-66
2022/08/25 00:25:55;;;;;;;;;;;22.90;71.90;;;;;;6126851;23;784;-66
2022/08/25 00:28:21;;;;;;;;;;;22.90;71.90;;;;;;6126944;23;1901;-67
2022/08/25 00:30:48;;;;;;;;;;;22.90;71.90;;;;;;6101311;23;808;-65
2022/08/25 00:33:14;;;;;;;;;;;22.90;71.90;;;;;;6126919;23;902;-65
2022/08/25 00:35:39;;;;;;;;;;;22.90;71.90;;;;;;6126942;23;813;-65
2022/08/25 00:38:05;;;;;;;;;;;22.90;71.90;;;;;;6100869;23;1291;-65
2022/08/25 00:40:30;;;;;;;;;;;22.90;71.90;;;;;;6127149;23;824;-65
2022/08/25 00:42:56;;;;;;;;;;;22.90;71.90;;;;;;6127180;23;892;-64
2022/08/25 00:45:22;;;;;;;;;;;22.80;71.80;;;;;;6127001;23;792;-66
2022/08/25 00:47:47;;;;;;;;;;;22.90;71.90;;;;;;6100187;23;1927;-65
2022/08/25 00:50:13;;;;;;;;;;;22.80;71.90;;;;;;6126749;23;907;-64
2022/08/25 00:52:49;;;;;;;;;;;22.80;71.90;;;;;;6126796;23;920;-66
2022/08/25 00:55:26;;;;;;;;;;;22.90;71.90;;;;;;6101150;23;821;-66
2022/08/25 00:57:52;;;;;;;;;;;22.90;71.90;;;;;;6100182;23;1446;-66
2022/08/25 01:00:23;;;;;;;;;;;22.90;71.90;;;;;;6126755;23;1058;-66
2022/08/25 01:02:49;;;;;;;;;;;22.90;71.90;;;;;;6127044;23;777;-65
2022/08/25 01:05:14;;;;;;;;;;;22.90;71.90;;;;;;6126676;23;858;-65
2022/08/25 01:07:40;;;;;;;;;;;22.90;71.90;;;;;;6126138;23;1889;-66
2022/08/25 01:10:06;;;;;;;;;;;22.90;71.90;;;;;;6126404;23;1062;-65
2022/08/25 01:12:32;;;;;;;;;;;22.90;71.90;;;;;;6101120;23;825;-65
2022/08/25 01:14:57;;;;;;;;;;;22.90;71.90;;;;;;6100810;23;789;-65
2022/08/25 01:17:26;;;;;;;;;;;22.90;71.90;;;;;;6099718;23;1255;-66
2022/08/25 01:19:52;;;;;;;;;;;22.80;71.90;;;;;;6126664;23;840;-66
2022/08/25 01:22:17;;;;;;;;;;;22.90;72.00;;;;;;6100341;23;1240;-65
2022/08/25 01:24:49;;;;;;;;;;;22.80;71.90;;;;;;6126651;23;891;-65
2022/08/25 01:27:15;;;;;;;;;;;22.90;71.90;;;;;;6125356;23;1940;-65
2022/08/25 01:29:40;;;;;;;;;;;22.90;72.00;;;;;;6100469;23;832;-65
2022/08/25 01:32:07;;;;;;;;;;;22.90;71.90;;;;;;6126638;23;852;-65
2022/08/25 01:34:34;;;;;;;;;;;22.90;71.90;;;;;;6126270;23;804;-66
2022/08/25 01:36:59;;;;;;;;;;;22.80;71.90;;;;;;6099840;23;1196;-66
2022/08/25 01:39:25;;;;;;;;;;;22.90;72.00;;;;;;6126611;23;1034;-66
2022/08/25 01:42:07;;;;;;;;;;;22.80;71.90;;;;;;6126341;23;832;-66
2022/08/25 01:44:34;;;;;;;;;;;22.90;72.70;;;;;;6126657;23;851;-66
2022/08/25 01:47:00;;;;;;;;;;;22.90;72.00;;;;;;6099968;23;1971;-65
2022/08/25 01:49:25;;;;;;;;;;;22.90;72.00;;;;;;6100363;23;903;-65
2022/08/25 01:52:10;;;;;;;;;;;22.80;71.90;;;;;;6126246;23;781;-64
2022/08/25 01:54:36;;;;;;;;;;;22.90;72.00;;;;;;6126716;23;1023;-65
2022/08/25 01:57:01;;;;;;;;;;;22.90;72.00;;;;;;6125581;23;1164;-66
2022/08/25 01:59:27;;;;;;;;;;;22.90;72.00;;;;;;6126317;23;857;-65
2022/08/25 02:01:52;;;;;;;;;;;22.90;72.00;;;;;;6101050;23;825;-65
2022/08/25 02:04:18;;;;;;;;;;;22.80;71.90;;;;;;6126549;23;812;-65
2022/08/25 02:06:43;;;;;;;;;;;22.90;72.00;;;;;;6125589;23;1263;-66
2022/08/25 02:09:15;;;;;;;;;;;22.90;72.00;;;;;;6126445;23;1893;-66
2022/08/25 02:11:41;;;;;;;;;;;22.80;71.90;;;;;;6126382;23;804;-65
2022/08/25 02:14:06;;;;;;;;;;;22.80;71.90;;;;;;6100264;23;837;-66
2022/08/25 02:16:33;;;;;;;;;;;22.80;71.90;;;;;;6125390;23;1164;-66
2022/08/25 02:18:58;;;;;;;;;;;22.90;72.00;;;;;;6126115;23;876;-67
2022/08/25 02:21:24;;;;;;;;;;;22.80;71.90;;;;;;6126181;23;924;-66
2022/08/25 02:23:49;;;;;;;;;;;22.90;72.00;;;;;;6126444;23;834;-66
2022/08/25 02:26:18;;;;;;;;;;;22.80;71.90;;;;;;6125387;23;741;-66
2022/08/25 02:28:44;;;;;;;;;;;22.90;72.00;;;;;;6125219;23;1909;-66
2022/08/25 02:31:10;;;;;;;;;;;22.80;71.90;;;;;;6126010;23;816;-65
2022/08/25 02:33:36;;;;;;;;;;;22.80;71.90;;;;;;6100617;23;907;-66
2022/08/25 02:36:01;;;;;;;;;;;22.80;72.00;;;;;;6125772;23;799;-66
2022/08/25 02:38:27;;;;;;;;;;;22.90;72.00;;;;;;6099857;23;1156;-65
2022/08/25 02:40:53;;;;;;;;;;;22.90;72.00;;;;;;6099646;23;836;-65
2022/08/25 02:43:19;;;;;;;;;;;22.80;71.90;;;;;;6100130;23;888;-66
2022/08/25 02:45:44;;;;;;;;;;;22.80;71.90;;;;;;6099594;23;1046;-66
2022/08/25 02:48:10;;;;;;;;;;;22.90;72.00;;;;;;6125044;23;1916;-66
2022/08/25 02:50:35;;;;;;;;;;;22.80;71.90;;;;;;6126287;23;821;-66
2022/08/25 02:53:01;;;;;;;;;;;22.90;72.00;;;;;;6125939;23;718;-66
2022/08/25 02:55:26;;;;;;;;;;;22.80;71.90;;;;;;6099714;23;797;-65
2022/08/25 02:57:52;;;;;;;;;;;22.90;72.00;;;;;;6125760;23;1208;-66
2022/08/25 03:00:17;;;;;;;;;;;22.90;72.00;;;;;;6125895;23;864;-66
2022/08/25 03:02:43;;;;;;;;;;;22.90;72.00;;;;;;6099792;23;1202;-65
2022/08/25 03:05:09;;;;;;;;;;;22.90;72.00;;;;;;6100294;23;987;-65
2022/08/25 03:07:34;;;;;;;;;;;22.80;71.90;;;;;;6124832;23;1902;-66
2022/08/25 03:10:03;;;;;;;;;;;22.80;72.00;;;;;;6099867;23;898;-66
2022/08/25 03:12:29;;;;;;;;;;;22.80;72.00;;;;;;6125673;23;785;-66
2022/08/25 03:14:55;;;;;;;;;;;22.90;72.00;;;;;;6126139;23;820;-66
2022/08/25 03:17:20;;;;;;;;;;;22.90;72.00;;;;;;6124772;23;1279;-66
2022/08/25 03:19:46;;;;;;;;;;;22.90;72.00;;;;;;6126000;23;880;-67
2022/08/25 03:22:11;;;;;;;;;;;22.80;72.00;;;;;;6125456;23;888;-66
2022/08/25 03:24:37;;;;;;;;;;;22.90;72.10;;;;;;6125419;23;895;-66
2022/08/25 03:27:02;;;;;;;;;;;22.90;72.00;;;;;;6124880;23;1176;-66
2022/08/25 03:29:30;;;;;;;;;;;22.80;72.00;;;;;;6125211;23;2006;-66
2022/08/25 03:31:56;;;;;;;;;;;22.90;72.00;;;;;;6099818;23;1047;-66
2022/08/25 03:34:22;;;;;;;;;;;22.80;71.90;;;;;;6124871;23;894;-66
2022/08/25 03:36:48;;;;;;;;;;;22.90;72.00;;;;;;6075312;23;1330;-65
2022/08/25 03:39:14;;;;;;;;;;;22.90;72.10;;;;;;6075350;23;1271;-66
2022/08/25 03:41:40;;;;;;;;;;;22.90;72.00;;;;;;6125375;23;852;-65
2022/08/25 03:44:05;;;;;;;;;;;22.90;72.00;;;;;;6099920;23;838;-66
2022/08/25 03:46:50;;;;;;;;;;;22.90;72.00;;;;;;6124944;23;1211;-66
2022/08/25 03:49:16;;;;;;;;;;;22.90;72.00;;;;;;6125722;23;1889;-66
2022/08/25 03:51:44;;;;;;;;;;;22.90;72.00;;;;;;6100587;23;856;-66
2022/08/25 03:54:09;;;;;;;;;;;22.80;71.90;;;;;;6101983;23;1031;-66
2022/08/25 03:56:35;;;;;;;;;;;22.80;71.90;;;;;;6101492;23;1200;-66
2022/08/25 03:59:00;;;;;;;;;;;22.90;72.00;;;;;;6127932;23;841;-65
2022/08/25 04:01:26;;;;;;;;;;;22.90;72.00;;;;;;6127521;23;889;-66
2022/08/25 04:03:51;;;;;;;;;;;22.90;72.00;;;;;;6128045;23;890;-66
2022/08/25 04:06:17;;;;;;;;;;;22.80;72.00;;;;;;6126530;23;1113;-65
2022/08/25 04:08:42;;;;;;;;;;;22.80;72.00;;;;;;6127165;23;1889;-67
2022/08/25 04:11:09;;;;;;;;;;;22.90;72.00;;;;;;6127694;23;820;-66
2022/08/25 04:13:35;;;;;;;;;;;22.90;72.80;;;;;;6102209;23;825;-66
2022/08/25 04:16:01;;;;;;;;;;;22.90;72.00;;;;;;6101821;23;805;-66
2022/08/25 04:18:27;;;;;;;;;;;22.90;72.00;;;;;;6126919;23;2278;-69
2022/08/25 04:20:59;;;;;;;;;;;22.80;72.00;;;;;;6126054;23;765;-68
2022/08/25 04:23:25;;;;;;;;;;;22.90;72.10;;;;;;6101541;23;835;-68
2022/08/25 04:25:50;;;;;;;;;;;22.90;72.10;;;;;;6126978;23;788;-69
2022/08/25 04:28:16;;;;;;;;;;;22.90;72.00;;;;;;6126964;23;1942;-67
2022/08/25 04:30:42;;;;;;;;;;;22.90;72.00;;;;;;6126883;23;1042;-68
2022/08/25 04:33:08;;;;;;;;;;;22.80;72.00;;;;;;6101316;23;833;-69
2022/08/25 04:35:33;;;;;;;;;;;22.80;72.00;;;;;;6126426;23;900;-68
2022/08/25 04:37:58;;;;;;;;;;;22.80;72.00;;;;;;6126870;23;1149;-69
2022/08/25 04:40:25;;;;;;;;;;;22.80;72.00;;;;;;6127044;23;789;-69
2022/08/25 04:42:50;;;;;;;;;;;22.90;72.10;;;;;;6127122;23;836;-68
2022/08/25 04:45:16;;;;;;;;;;;22.80;72.00;;;;;;6100716;23;1077;-69
2022/08/25 04:47:41;;;;;;;;;;;22.90;72.10;;;;;;6126148;23;1938;-68
2022/08/25 04:50:07;;;;;;;;;;;22.90;72.00;;;;;;6126791;23;994;-68
2022/08/25 04:52:32;;;;;;;;;;;22.80;72.00;;;;;;6126926;23;776;-68
2022/08/25 04:54:58;;;;;;;;;;;22.80;72.00;;;;;;6101192;23;804;-68
2022/08/25 04:57:24;;;;;;;;;;;22.90;72.00;;;;;;6099935;23;1149;-69
2022/08/25 04:59:50;;;;;;;;;;;22.90;72.00;;;;;;6101311;23;797;-68
2022/08/25 05:02:15;;;;;;;;;;;22.90;72.00;;;;;;6100874;23;1066;-69
2022/08/25 05:04:41;;;;;;;;;;;22.90;72.10;;;;;;6127004;23;807;-68
2022/08/25 05:07:06;;;;;;;;;;;22.90;72.10;;;;;;6124702;23;1078;-68
2022/08/25 05:09:31;;;;;;;;;;;22.80;72.00;;;;;;6126280;23;1180;-69
2022/08/25 05:11:57;;;;;;;;;;;22.80;72.00;;;;;;6126620;23;770;-68
2022/08/25 05:14:22;;;;;;;;;;;22.90;72.10;;;;;;6101089;23;832;-68
2022/08/25 05:16:48;;;;;;;;;;;22.80;72.70;;;;;;6100227;23;769;-68
2022/08/25 05:19:13;;;;;;;;;;;22.90;72.10;;;;;;6100059;23;1248;-68
2022/08/25 05:21:39;;;;;;;;;;;22.80;72.00;;;;;;6100817;23;805;-68
2022/08/25 05:24:05;;;;;;;;;;;22.90;72.10;;;;;;6126804;23;891;-68
2022/08/25 05:26:31;;;;;;;;;;;22.90;72.10;;;;;;6099992;23;804;-68
2022/08/25 05:28:57;;;;;;;;;;;22.80;72.00;;;;;;6125980;23;1990;-68
2022/08/25 05:31:23;;;;;;;;;;;22.90;72.10;;;;;;6076652;23;1429;-68
2022/08/25 05:33:48;;;;;;;;;;;22.90;72.10;;;;;;6100456;23;785;-68
2022/08/25 05:36:14;;;;;;;;;;;22.90;72.10;;;;;;6125979;23;781;-68
2022/08/25 05:38:40;;;;;;;;;;;22.80;72.00;;;;;;6126449;23;1152;-69
2022/08/25 05:41:10;;;;;;;;;;;22.80;72.00;;;;;;6100317;23;797;-69
2022/08/25 05:43:39;;;;;;;;;;;22.90;72.10;;;;;;6100663;23;896;-68
2022/08/25 05:46:05;;;;;;;;;;;22.90;72.10;;;;;;6100501;23;688;-68
2022/08/25 05:48:30;;;;;;;;;;;22.90;72.10;;;;;;6100063;23;1929;-69
2022/08/25 05:50:56;;;;;;;;;;;22.90;72.10;;;;;;6100473;23;1261;-68
2022/08/25 05:53:22;;;;;;;;;;;22.80;72.10;;;;;;6100001;23;781;-68
2022/08/25 05:55:48;;;;;;;;;;;22.80;72.00;;;;;;6100241;23;772;-69
2022/08/25 05:58:13;;;;;;;;;;;22.80;72.00;;;;;;6098742;23;1337;-68
2022/08/25 06:00:39;;;;;;;;;;;22.80;72.00;;;;;;6126328;23;769;-68
2022/08/25 06:03:04;;;;;;;;;;;22.90;72.10;;;;;;6100015;23;892;-68
2022/08/25 06:05:31;;;;;;;;;;;22.80;72.10;;;;;;6099586;23;795;-68
2022/08/25 06:07:56;;;;;;;;;;;22.80;72.00;;;;;;6126132;23;1893;-69
2022/08/25 06:10:22;;;;;;;;;;;22.80;72.00;;;;;;6126126;23;801;-67
2022/08/25 06:12:48;;;;;;;;;;;22.90;72.10;;;;;;6125461;23;817;-68
2022/08/25 06:15:18;;;;;;;;;;;22.90;72.10;;;;;;6125735;23;792;-67
2022/08/25 06:17:43;;;;;;;;;;;22.80;72.00;;;;;;6099173;23;1235;-68
2022/08/25 06:20:10;;;;;;;;;;;22.90;72.10;;;;;;6100283;23;793;-69
2022/08/25 06:22:36;;;;;;;;;;;22.80;72.10;;;;;;6126249;23;858;-68
2022/08/25 06:25:02;;;;;;;;;;;22.80;72.00;;;;;;6100031;23;1335;-69
2022/08/25 06:27:28;;;;;;;;;;;22.80;72.10;;;;;;6124952;23;1893;-69
2022/08/25 06:29:53;;;;;;;;;;;22.80;72.00;;;;;;6125940;23;1018;-69
2022/08/25 06:32:19;;;;;;;;;;;22.80;72.30;;;;;;6125745;23;789;-68
2022/08/25 06:34:45;;;;;;;;;;;22.80;72.30;;;;;;6117450;23;789;-67
2022/08/25 06:37:10;;;;;;;;;;;22.90;72.50;;;;;;6092954;23;1235;-68
2022/08/25 06:39:36;;;;;;;;;;;22.80;72.50;;;;;;6124093;23;816;-68
2022/08/25 06:42:01;;;;;;;;;;;22.80;72.60;;;;;;6124543;23;796;-68
2022/08/25 06:44:27;;;;;;;;;;;22.80;72.70;;;;;;6098674;23;927;-70
2022/08/25 06:46:52;;;;;;;;;;;22.80;73.40;;;;;;6123934;23;890;-70
2022/08/25 06:49:18;;;;;;;;;;;22.80;72.80;;;;;;6098537;23;1873;-69
2022/08/25 06:51:44;;;;;;;;;;;22.80;72.90;;;;;;6124330;23;785;-68
2022/08/25 06:54:10;;;;;;;;;;;22.80;72.90;;;;;;6099580;23;836;-68
2022/08/25 06:56:35;;;;;;;;;;;22.80;72.90;;;;;;6099242;23;869;-69
2022/08/25 06:59:02;;;;;;;;;;;22.80;73.00;;;;;;6099946;23;1252;-69
2022/08/25 07:01:27;;;;;;;;;;;22.80;73.10;;;;;;6099329;23;754;-69
2022/08/25 07:03:56;;;;;;;;;;;22.80;73.10;;;;;;6125579;23;789;-68
2022/08/25 07:06:21;;;;;;;;;;;22.80;73.10;;;;;;6074916;23;1165;-69
2022/08/25 07:08:47;;;;;;;;;;;22.80;73.20;;;;;;6125529;23;1934;-68
2022/08/25 07:11:13;;;;;;;;;;;22.80;73.20;;;;;;6099655;23;792;-68
2022/08/25 07:13:38;;;;;;;;;;;22.80;73.20;;;;;;6125726;23;817;-68
2022/08/25 07:16:04;;;;;;;;;;;22.80;73.20;;;;;;6124745;23;797;-69
2022/08/25 07:18:30;;;;;;;;;;;22.80;74.00;;;;;;6099295;23;1196;-69
2022/08/25 07:20:56;;;;;;;;;;;22.80;73.30;;;;;;6126088;23;769;-69
2022/08/25 07:23:22;;;;;;;;;;;22.80;73.40;;;;;;6099925;23;864;-69
2022/08/25 07:25:47;;;;;;;;;;;22.80;73.50;;;;;;6124749;23;892;-69
2022/08/25 07:28:13;;;;;;;;;;;22.80;73.40;;;;;;6125213;23;1940;-69
2022/08/25 07:30:39;;;;;;;;;;;22.80;74.30;;;;;;6099060;23;1295;-68
2022/08/25 07:33:04;;;;;;;;;;;22.80;73.60;;;;;;6099757;23;923;-68
2022/08/25 07:35:31;;;;;;;;;;;22.80;73.60;;;;;;6099344;23;818;-68
2022/08/25 07:37:56;;;;;;;;;;;22.80;73.70;;;;;;6125131;23;1169;-69
2022/08/25 07:40:26;;;;;;;;;;;22.80;73.70;;;;;;6075730;23;1356;-69
2022/08/25 07:42:52;;;;;;;;;;;22.80;73.50;;;;;;6099811;23;735;-69
2022/08/25 07:45:18;;;;;;;;;;;22.80;73.70;;;;;;6125141;23;896;-68
2022/08/25 07:47:44;;;;;;;;;;;22.80;73.80;;;;;;6099348;23;1928;-68
2022/08/25 07:50:11;;;;;;;;;;;22.80;73.90;;;;;;6125531;23;825;-69
2022/08/25 07:52:36;;;;;;;;;;;22.80;74.00;;;;;;6100087;23;789;-68
2022/08/25 07:55:02;;;;;;;;;;;22.80;74.00;;;;;;6099580;23;892;-68
2022/08/25 07:57:28;;;;;;;;;;;22.80;74.10;;;;;;6098577;23;1160;-69
2022/08/25 07:59:54;;;;;;;;;;;22.80;74.10;;;;;;6125066;23;913;-68
2022/08/25 08:02:19;;;;;;;;;;;22.80;74.00;;;;;;6125409;23;789;-69
2022/08/25 08:04:47;;;;;;;;;;;22.80;74.50;;;;;;6075453;23;1122;-68
2022/08/25 08:07:14;;;;;;;;;;;22.80;74.10;;;;;;6099209;23;1188;-68
2022/08/25 08:09:39;;;;;;;;;;;22.80;74.20;;;;;;6124919;23;776;-68
2022/08/25 08:12:05;;;;;;;;;;;22.80;74.30;;;;;;6125232;23;808;-67
2022/08/25 08:14:31;;;;;;;;;;;22.80;74.30;;;;;;6125162;23;784;-68
2022/08/25 08:16:56;;;;;;;;;;;22.80;74.40;;;;;;6124431;23;1002;-68
2022/08/25 08:19:21;;;;;;;;;;;22.80;74.60;;;;;;6125015;23;1230;-68
2022/08/25 08:21:48;;;;;;;;;;;22.80;74.70;;;;;;6125415;23;828;-68
2022/08/25 08:24:14;;;;;;;;;;;22.80;74.70;;;;;;6125845;23;737;-68
2022/08/25 08:26:39;;;;;;;;;;;22.80;74.70;;;;;;6124802;23;765;-68
2022/08/25 08:29:04;;;;;;;;;;;22.80;74.80;;;;;;6124206;23;1897;-67
2022/08/25 08:31:30;;;;;;;;;;;22.80;74.80;;;;;;6125392;23;896;-68
2022/08/25 08:33:56;;;;;;;;;;;22.80;74.70;;;;;;6125576;23;910;-68
2022/08/25 08:36:22;;;;;;;;;;;22.80;74.80;;;;;;6124791;23;788;-68
2022/08/25 08:38:47;;;;;;;;;;;22.90;74.70;;;;;;6099147;23;1279;-68
2022/08/25 08:44:18;;;;;;;;;;;22.80;74.50;;;;;;6125508;23;638;-67
2022/08/25 08:47:04;;;;;;;;;;;22.90;74.70;;;;;;6099187;23;1284;-68
2022/08/25 08:49:39;;;;;;;;;;;22.80;74.60;;;;;;6124057;23;1878;-67
2022/08/25 08:52:04;;;;;;;;;;;22.80;74.60;;;;;;6099858;23;896;-66
2022/08/25 08:54:31;;;;;;;;;;;22.90;75.20;;;;;;6099733;23;995;-67
2022/08/25 08:57:05;;;;;;;;;;;22.90;75.30;;;;;;6099033;23;1047;-68
2022/08/25 08:59:34;;;;;;;;;;;22.90;75.00;;;;;;6075177;23;1307;-68
2022/08/25 09:02:00;;;;;;;;;;;22.90;75.40;;;;;;6099446;23;816;-67
2022/08/25 09:04:31;;;;;;;;;;;22.90;75.70;;;;;;6125445;23;868;-67
2022/08/25 09:06:57;;;;;;;;;;;22.90;75.90;;;;;;6099687;23;730;-67
2022/08/25 09:09:32;;;;;;;;;;;22.90;75.90;;;;;;6099390;23;1924;-67
2022/08/25 09:12:13;;;;;;;;;;;23.00;76.40;;;;;;6099096;23;777;-68
2022/08/25 09:14:44;;;;;;;;;;;23.00;76.50;;;;;;6099263;23;1071;-67
2022/08/25 09:17:15;;;;;;;;;;;23.00;76.40;;;;;;6098745;23;1212;-68
2022/08/25 09:20:04;;;;;;;;;;;23.00;76.20;;;;;;6124931;23;939;-66
2022/08/25 09:22:39;;;;;;;;;;;23.00;75.60;;;;;;6110204;23;1062;-67
2022/08/25 09:25:10;;;;;;;;;;;23.00;76.60;;;;;;6125360;23;908;-68
2022/08/25 09:27:37;;;;;;;;;;;23.00;76.60;;;;;;6098546;23;1934;-68
2022/08/25 09:30:03;;;;;;;;;;;23.00;77.20;;;;;;6125181;23;906;-67
2022/08/25 09:32:29;;;;;;;;;;;23.00;77.00;;;;;;6099213;23;1255;-67
2022/08/25 09:34:55;;;;;;;;;;;23.10;77.40;;;;;;6074463;23;1106;-68
2022/08/25 09:37:21;;;;;;;;;;;23.10;77.70;;;;;;6074049;23;1226;-67
2022/08/25 09:39:46;;;;;;;;;;;23.10;78.10;;;;;;6098890;23;872;-67
2022/08/25 09:42:11;;;;;;;;;;;23.10;77.10;;;;;;6125002;23;801;-67
2022/08/25 09:44:40;;;;;;;;;;;23.10;77.00;;;;;;6099063;23;769;-68
2022/08/25 09:47:28;;;;;;;;;;;23.10;77.40;;;;;;6122338;23;911;-67
2022/08/25 09:49:59;;;;;;;;;;;23.10;77.50;;;;;;6123544;23;815;-67
2022/08/25 09:52:25;;;;;;;;;;;23.10;76.80;;;;;;6075565;23;1289;-67
2022/08/25 09:54:50;;;;;;;;;;;23.20;77.10;;;;;;6125394;23;845;-68
2022/08/25 09:57:36;;;;;;;;;;;23.10;76.80;;;;;;6123785;23;1208;-68
2022/08/25 10:00:12;;;;;;;;;;;23.10;76.80;;;;;;6124096;23;969;-68
2022/08/25 10:02:38;;;;;;;;;;;23.10;76.80;;;;;;6098459;23;828;-67
2022/08/25 10:05:33;;;;;;;;;;;23.10;77.00;;;;;;6099082;23;821;-67
2022/08/25 10:08:00;;;;;;;;;;;23.10;76.70;;;;;;6122220;23;1928;-68
2022/08/25 10:10:30;;;;;;;;;;;23.10;77.40;;;;;;6098971;23;808;-68
2022/08/25 10:12:59;;;;;;;;;;;23.10;77.40;;;;;;6074737;23;1213;-68
2022/08/25 10:15:25;;;;;;;;;;;23.10;77.10;;;;;;6099410;23;785;-67
2022/08/25 10:17:51;;;;;;;;;;;23.20;76.80;;;;;;6123888;23;1267;-67
2022/08/25 10:20:18;;;;;;;;;;;23.20;76.90;;;;;;6090081;23;1930;-66
2022/08/25 10:22:44;;;;;;;;;;;23.20;76.70;;;;;;6119473;23;804;-66
2022/08/25 10:25:10;;;;;;;;;;;23.20;76.90;;;;;;6124303;23;789;-66
2022/08/25 10:27:36;;;;;;;;;;;23.20;77.10;;;;;;6097615;23;1947;-66
2022/08/25 10:30:05;;;;;;;;;;;23.20;77.00;;;;;;6124919;23;1184;-67
2022/08/25 10:32:50;;;;;;;;;;;23.20;77.20;;;;;;6123686;23;859;-65
2022/08/25 10:35:17;;;;;;;;;;;23.20;76.90;;;;;;6124035;23;865;-66
2022/08/25 10:37:57;;;;;;;;;;;23.20;77.30;;;;;;6097677;23;793;-65
2022/08/25 10:40:29;;;;;;;;;;;23.20;77.10;;;;;;6099011;23;1200;-67
2022/08/25 10:43:05;;;;;;;;;;;23.20;77.10;;;;;;6125002;23;796;-63
2022/08/25 10:45:42;;;;;;;;;;;23.20;77.20;;;;;;6124651;23;843;-64
2022/08/25 10:48:14;;;;;;;;;;;23.20;77.20;;;;;;6101139;23;1927;-65
2022/08/25 10:50:40;;;;;;;;;;;23.20;77.00;;;;;;6124686;23;1169;-66
2022/08/25 10:53:05;;;;;;;;;;;23.30;77.00;;;;;;6099247;23;1230;-63
2022/08/25 10:55:49;;;;;;;;;;;23.30;76.80;;;;;;6123974;23;797;-66
2022/08/25 10:58:28;;;;;;;;;;;23.20;76.60;;;;;;6125077;23;849;-66
2022/08/25 11:01:12;;;;;;;;;;;23.20;76.80;;;;;;6098895;23;930;-66
2022/08/25 11:03:42;;;;;;;;;;;23.30;77.10;;;;;;6124982;23;1026;-67
2022/08/25 11:06:11;;;;;;;;;;;23.20;76.70;;;;;;6124607;23;895;-66
2022/08/25 11:08:37;;;;;;;;;;;23.20;76.40;;;;;;6098712;23;1885;-65
2022/08/25 11:11:04;;;;;;;;;;;23.30;76.60;;;;;;6099300;23;773;-65
2022/08/25 11:13:45;;;;;;;;;;;23.30;76.50;;;;;;6098445;23;849;-64
2022/08/25 11:16:14;;;;;;;;;;;23.30;76.60;;;;;;6124101;23;967;-65
2022/08/25 11:18:45;;;;;;;;;;;23.30;76.50;;;;;;6098569;23;1259;-65
2022/08/25 11:21:14;;;;;;;;;;;23.30;76.40;;;;;;6099181;23;920;-65
2022/08/25 11:23:42;;;;;;;;;;;23.30;76.40;;;;;;6098821;23;1038;-65
2022/08/25 11:26:10;;;;;;;;;;;23.30;76.30;;;;;;6098275;23;1031;-65
2022/08/25 11:28:41;;;;;;;;;;;23.30;76.20;;;;;;6098712;23;1929;-65
2022/08/25 11:31:07;;;;;;;;;;;23.30;76.50;;;;;;6124970;23;900;-65
2022/08/25 11:33:32;;;;;;;;;;;23.30;76.70;;;;;;6125187;23;824;-65
2022/08/25 11:36:05;;;;;;;;;;;23.30;76.50;;;;;;6123931;23;816;-65
2022/08/25 11:38:53;;;;;;;;;;;23.30;76.20;;;;;;6098185;23;1334;-65
2022/08/25 11:41:39;;;;;;;;;;;23.30;76.00;;;;;;6099115;23;783;-65
2022/08/25 11:44:11;;;;;;;;;;;23.30;76.10;;;;;;6064930;23;1201;-65
2022/08/25 11:46:47;;;;;;;;;;;23.30;76.00;;;;;;6074156;23;888;-65
2022/08/25 11:49:19;;;;;;;;;;;23.30;76.10;;;;;;6098258;23;1934;-65
2022/08/25 11:51:49;;;;;;;;;;;23.30;76.70;;;;;;6124860;23;797;-65
2022/08/25 11:54:15;;;;;;;;;;;23.30;76.70;;;;;;6099218;23;852;-63
2022/08/25 11:56:41;;;;;;;;;;;23.40;76.80;;;;;;6124209;23;1018;-63
2022/08/25 11:59:06;;;;;;;;;;;23.40;76.80;;;;;;6097161;23;1291;-65
2022/08/25 12:01:38;;;;;;;;;;;23.40;76.70;;;;;;6098414;23;778;-65
2022/08/25 12:04:22;;;;;;;;;;;23.40;76.50;;;;;;6124326;23;951;-65
2022/08/25 12:07:13;;;;;;;;;;;23.40;76.50;;;;;;6124104;23;955;-65
2022/08/25 12:09:54;;;;;;;;;;;23.40;76.40;;;;;;6118329;23;1928;-64
2022/08/25 12:12:28;;;;;;;;;;;23.40;76.30;;;;;;6124947;23;879;-64
2022/08/25 12:14:54;;;;;;;;;;;23.40;76.10;;;;;;6100271;23;1281;-65
2022/08/25 12:17:20;;;;;;;;;;;23.40;76.10;;;;;;6126304;23;825;-66
2022/08/25 12:19:48;;;;;;;;;;;23.40;76.30;;;;;;6126162;23;1259;-65
2022/08/25 12:22:21;;;;;;;;;;;23.40;76.70;;;;;;6100495;23;832;-66
2022/08/25 12:24:46;;;;;;;;;;;23.40;76.70;;;;;;6126318;23;820;-65
2022/08/25 12:27:30;;;;;;;;;;;23.40;76.60;;;;;;6126193;23;729;-66
2022/08/25 12:30:03;;;;;;;;;;;23.40;76.50;;;;;;6126169;23;1212;-65
2022/08/25 12:32:46;;;;;;;;;;;23.40;76.70;;;;;;6126343;23;927;-66
2022/08/25 12:35:18;;;;;;;;;;;23.40;76.70;;;;;;6126233;23;1006;-66
2022/08/25 12:38:12;;;;;;;;;;;23.40;76.40;;;;;;6126198;23;1214;-63
2022/08/25 12:40:38;;;;;;;;;;;23.40;76.40;;;;;;6100425;23;1311;-61
2022/08/25 12:43:22;;;;;;;;;;;23.40;76.40;;;;;;6126595;23;832;-63
2022/08/25 12:45:51;;;;;;;;;;;23.40;76.20;;;;;;6125776;23;825;-65
2022/08/25 12:48:26;;;;;;;;;;;23.40;76.30;;;;;;6100748;23;1928;-64
2022/08/25 12:51:14;;;;;;;;;;;23.40;76.30;;;;;;6126449;23;837;-64
2022/08/25 12:53:40;;;;;;;;;;;23.40;76.20;;;;;;6111078;23;1458;-63
2022/08/25 12:56:06;;;;;;;;;;;23.40;76.40;;;;;;6100332;23;789;-62
2022/08/25 12:58:37;;;;;;;;;;;23.40;76.30;;;;;;6126560;23;1185;-64
2022/08/25 13:01:12;;;;;;;;;;;23.40;76.30;;;;;;6076679;23;1208;-63
2022/08/25 13:03:57;;;;;;;;;;;23.40;76.10;;;;;;6100766;23;1054;-64
2022/08/25 13:06:35;;;;;;;;;;;23.50;76.10;;;;;;6126436;23;687;-63
2022/08/25 13:09:09;;;;;;;;;;;23.50;76.00;;;;;;6100341;23;1920;-65
2022/08/25 13:11:46;;;;;;;;;;;23.50;76.00;;;;;;6125809;23;844;-67
2022/08/25 13:14:16;;;;;;;;;;;23.50;76.00;;;;;;6100420;23;844;-66
2022/08/25 13:16:50;;;;;;;;;;;23.50;75.80;;;;;;6099854;23;840;-66
2022/08/25 13:19:17;;;;;;;;;;;23.50;75.70;;;;;;6099936;23;1232;-66
2022/08/25 13:21:43;;;;;;;;;;;23.50;75.60;;;;;;6125906;23;836;-66
2022/08/25 13:24:11;;;;;;;;;;;23.50;75.60;;;;;;6126083;23;824;-66
2022/08/25 13:26:38;;;;;;;;;;;23.50;75.50;;;;;;6099801;23;821;-64
2022/08/25 13:29:07;;;;;;;;;;;23.50;75.60;;;;;;6099775;23;1893;-66
2022/08/25 13:31:32;;;;;;;;;;;23.50;75.50;;;;;;6125856;23;892;-65
2022/08/25 13:34:02;;;;;;;;;;;23.60;75.50;;;;;;6076030;23;1172;-65
2022/08/25 13:39:15;;;;;;;;;;;23.50;75.30;;;;;;6103340;23;1315;-65
2022/08/25 13:41:48;;;;;;;;;;;23.50;75.30;;;;;;6099804;23;994;-65
2022/08/25 13:44:13;;;;;;;;;;;23.50;75.40;;;;;;6125889;23;869;-65
2022/08/25 13:46:39;;;;;;;;;;;23.50;75.50;;;;;;6099348;23;956;-62
2022/08/25 13:49:05;;;;;;;;;;;23.50;75.50;;;;;;6125956;23;1924;-62
2022/08/25 13:51:30;;;;;;;;;;;23.50;75.50;;;;;;6100496;23;722;-63
2022/08/25 13:53:57;;;;;;;;;;;23.50;75.60;;;;;;6125789;23;738;-66
2022/08/25 13:56:23;;;;;;;;;;;23.50;74.60;;;;;;6099931;23;829;-63
2022/08/25 13:58:48;;;;;;;;;;;23.60;74.40;;;;;;6100042;23;1208;-63
2022/08/25 14:01:16;;;;;;;;;;;23.60;74.20;;;;;;6099995;23;876;-64
2022/08/25 14:03:42;;;;;;;;;;;23.60;74.10;;;;;;6100365;23;789;-63
2022/08/25 14:06:14;;;;;;;;;;;23.60;74.00;;;;;;6100070;23;943;-63
2022/08/25 14:08:40;;;;;;;;;;;23.60;73.90;;;;;;6125643;23;1893;-63
2022/08/25 14:11:10;;;;;;;;;;;23.60;74.00;;;;;;6125714;23;816;-64
2022/08/25 14:13:36;;;;;;;;;;;23.60;74.00;;;;;;6099795;23;935;-65
2022/08/25 14:16:08;;;;;;;;;;;23.60;74.00;;;;;;6098852;23;821;-65
2022/08/25 14:18:34;;;;;;;;;;;23.60;74.10;;;;;;6075249;23;1217;-63
2022/08/25 14:20:59;;;;;;;;;;;23.60;74.10;;;;;;6125466;23;828;-64
2022/08/25 14:23:28;;;;;;;;;;;23.60;74.10;;;;;;6125886;23;900;-64
2022/08/25 14:25:55;;;;;;;;;;;23.60;74.00;;;;;;6098174;23;1413;-64
2022/08/25 14:28:21;;;;;;;;;;;23.60;73.80;;;;;;6125420;23;1932;-63
2022/08/25 14:30:48;;;;;;;;;;;23.60;73.70;;;;;;6099508;23;1354;-64
2022/08/25 14:33:14;;;;;;;;;;;23.60;73.60;;;;;;6100059;23;765;-65
2022/08/25 14:35:41;;;;;;;;;;;23.60;73.50;;;;;;6123716;23;848;-65
2022/08/25 14:38:07;;;;;;;;;;;23.60;73.40;;;;;;6100021;23;821;-63
2022/08/25 14:40:34;;;;;;;;;;;23.60;73.30;;;;;;6099694;23;1180;-63
2022/08/25 14:42:59;;;;;;;;;;;23.60;73.30;;;;;;6125459;23;828;-66
2022/08/25 14:45:25;;;;;;;;;;;23.60;73.20;;;;;;6099403;23;789;-63
2022/08/25 14:47:51;;;;;;;;;;;23.60;72.50;;;;;;6125389;23;1877;-64
2022/08/25 14:50:16;;;;;;;;;;;23.60;72.70;;;;;;6099317;23;1228;-65